sensor_id;sensor_type;location;lat;lon;timestamp;pressure;altitude;pressure_sealevel;temperature;humidity
55733;BME280;41637;52.364;9.910;2022-07-09T00:01:54;101960.89;;;14.26;91.83
55733;BME280;41637;52.364;9.910;2022-07-09T00:04:21;101964.33;;;14.21;92.02
55733;BME280;41637;52.364;9.910;2022-07-09T00:06:48;101959.56;;;14.16;92.55
55733;BME280;41637;52.364;9.910;2022-07-09T00:09:15;101959.34;;;14.11;92.71
55733;BME280;41637;52.364;9.910;2022-07-09T00:11:42;101960.60;;;14.06;92.95
55733;BME280;41637;52.364;9.910;2022-07-09T00:14:09;101960.80;;;14.01;92.94
55733;BME280;41637;52.364;9.910;2022-07-09T00:16:36;101956.73;;;13.96;93.19
55733;BME280;41637;52.364;9.910;2022-07-09T00:19:04;101953.09;;;13.91;93.43
55733;BME280;41637;52.364;9.910;2022-07-09T00:21:31;101951.19;;;13.84;93.66
55733;BME280;41637;52.364;9.910;2022-07-09T00:23:59;101949.52;;;13.79;93.64
55733;BME280;41637;52.364;9.910;2022-07-09T00:26:26;101952.30;;;13.74;94.09
55733;BME280;41637;52.364;9.910;2022-07-09T00:28:54;101953.40;;;13.69;94.41
55733;BME280;41637;52.364;9.910;2022-07-09T00:31:21;101951.40;;;13.64;94.38
55733;BME280;41637;52.364;9.910;2022-07-09T00:33:48;101952.48;;;13.59;94.59
55733;BME280;41637;52.364;9.910;2022-07-09T00:36:15;101951.72;;;13.55;95.10
55733;BME280;41637;52.364;9.910;2022-07-09T00:38:42;101954.34;;;13.51;95.16
55733;BME280;41637;52.364;9.910;2022-07-09T00:41:09;101954.00;;;13.47;95.42
55733;BME280;41637;52.364;9.910;2022-07-09T00:43:37;101953.83;;;13.43;95.73
55733;BME280;41637;52.364;9.910;2022-07-09T00:46:07;101950.16;;;13.41;96.14
55733;BME280;41637;52.364;9.910;2022-07-09T00:48:34;101947.41;;;13.38;96.14
55733;BME280;41637;52.364;9.910;2022-07-09T00:51:05;101949.73;;;13.37;96.63
55733;BME280;41637;52.364;9.910;2022-07-09T00:53:32;101946.66;;;13.35;96.69
55733;BME280;41637;52.364;9.910;2022-07-09T00:56:00;101939.54;;;13.34;97.04
55733;BME280;41637;52.364;9.910;2022-07-09T00:58:27;101940.02;;;13.33;97.28
55733;BME280;41637;52.364;9.910;2022-07-09T01:00:55;101935.80;;;13.32;97.28
55733;BME280;41637;52.364;9.910;2022-07-09T01:03:23;101933.42;;;13.31;97.69
55733;BME280;41637;52.364;9.910;2022-07-09T01:05:53;101935.16;;;13.32;97.81
55733;BME280;41637;52.364;9.910;2022-07-09T01:08:20;101932.27;;;13.32;97.90
55733;BME280;41637;52.364;9.910;2022-07-09T01:10:48;101933.05;;;13.33;98.59
55733;BME280;41637;52.364;9.910;2022-07-09T01:13:18;101932.94;;;13.34;98.97
55733;BME280;41637;52.364;9.910;2022-07-09T01:15:45;101933.58;;;13.35;99.61
55733;BME280;41637;52.364;9.910;2022-07-09T01:18:12;101938.77;;;13.36;99.85
55733;BME280;41637;52.364;9.910;2022-07-09T01:20:40;101940.79;;;13.37;99.91
55733;BME280;41637;52.364;9.910;2022-07-09T01:23:07;101939.36;;;13.39;100.00
55733;BME280;41637;52.364;9.910;2022-07-09T01:28:04;101937.52;;;13.44;100.00
55733;BME280;41637;52.364;9.910;2022-07-09T01:30:34;101936.70;;;13.47;100.00
55733;BME280;41637;52.364;9.910;2022-07-09T01:33:02;101935.70;;;13.50;100.00
55733;BME280;41637;52.364;9.910;2022-07-09T01:35:30;101930.46;;;13.53;100.00
55733;BME280;41637;52.364;9.910;2022-07-09T01:37:57;101924.48;;;13.55;100.00
55733;BME280;41637;52.364;9.910;2022-07-09T01:40:24;101918.25;;;13.57;100.00
55733;BME280;41637;52.364;9.910;2022-07-09T01:42:52;101920.20;;;13.59;100.00
55733;BME280;41637;52.364;9.910;2022-07-09T01:45:19;101919.46;;;13.59;100.00
55733;BME280;41637;52.364;9.910;2022-07-09T01:47:47;101915.86;;;13.59;99.93
55733;BME280;41637;52.364;9.910;2022-07-09T01:50:14;101909.96;;;13.60;99.95
55733;BME280;41637;52.364;9.910;2022-07-09T01:52:41;101906.09;;;13.59;99.92
55733;BME280;41637;52.364;9.910;2022-07-09T01:55:08;101896.30;;;13.59;99.94
55733;BME280;41637;52.364;9.910;2022-07-09T01:57:36;101894.36;;;13.59;99.93
55733;BME280;41637;52.364;9.910;2022-07-09T02:00:04;101891.29;;;13.60;100.00
55733;BME280;41637;52.364;9.910;2022-07-09T02:02:31;101891.64;;;13.60;99.97
55733;BME280;41637;52.364;9.910;2022-07-09T02:04:59;101891.42;;;13.62;99.82
55733;BME280;41637;52.364;9.910;2022-07-09T02:07:26;101882.54;;;13.62;99.82
55733;BME280;41637;52.364;9.910;2022-07-09T02:09:53;101880.63;;;13.63;99.72
55733;BME280;41637;52.364;9.910;2022-07-09T02:12:21;101879.00;;;13.63;99.88
55733;BME280;41637;52.364;9.910;2022-07-09T02:14:48;101876.70;;;13.63;99.80
55733;BME280;41637;52.364;9.910;2022-07-09T02:17:17;101877.84;;;13.62;99.85
55733;BME280;41637;52.364;9.910;2022-07-09T02:19:44;101878.34;;;13.61;99.79
55733;BME280;41637;52.364;9.910;2022-07-09T02:22:11;101874.80;;;13.59;99.64
55733;BME280;41637;52.364;9.910;2022-07-09T02:24:39;101873.64;;;13.57;99.89
55733;BME280;41637;52.364;9.910;2022-07-09T02:27:06;101872.17;;;13.54;99.89
55733;BME280;41637;52.364;9.910;2022-07-09T02:29:33;101876.06;;;13.51;99.91
55733;BME280;41637;52.364;9.910;2022-07-09T02:32:01;101873.55;;;13.48;99.91
55733;BME280;41637;52.364;9.910;2022-07-09T02:34:28;101871.55;;;13.43;100.00
55733;BME280;41637;52.364;9.910;2022-07-09T02:36:55;101874.15;;;13.39;100.00
55733;BME280;41637;52.364;9.910;2022-07-09T02:39:22;101870.88;;;13.35;100.00
55733;BME280;41637;52.364;9.910;2022-07-09T02:41:50;101869.31;;;13.31;100.00
55733;BME280;41637;52.364;9.910;2022-07-09T02:44:17;101869.63;;;13.28;100.00
55733;BME280;41637;52.364;9.910;2022-07-09T02:46:44;101866.64;;;13.24;100.00
55733;BME280;41637;52.364;9.910;2022-07-09T02:49:12;101863.00;;;13.22;100.00
55733;BME280;41637;52.364;9.910;2022-07-09T02:51:39;101866.63;;;13.19;100.00
55733;BME280;41637;52.364;9.910;2022-07-09T02:54:06;101869.52;;;13.19;100.00
55733;BME280;41637;52.364;9.910;2022-07-09T02:56:33;101871.61;;;13.19;100.00
55733;BME280;41637;52.364;9.910;2022-07-09T02:59:01;101872.95;;;13.20;100.00
55733;BME280;41637;52.364;9.910;2022-07-09T03:01:29;101873.23;;;13.22;100.00
55733;BME280;41637;52.364;9.910;2022-07-09T03:03:56;101867.83;;;13.24;100.00
55733;BME280;41637;52.364;9.910;2022-07-09T03:06:23;101869.23;;;13.28;100.00
55733;BME280;41637;52.364;9.910;2022-07-09T03:08:51;101868.95;;;13.31;100.00
55733;BME280;41637;52.364;9.910;2022-07-09T03:11:18;101867.94;;;13.34;100.00
55733;BME280;41637;52.364;9.910;2022-07-09T03:13:45;101867.18;;;13.38;100.00
55733;BME280;41637;52.364;9.910;2022-07-09T03:16:12;101857.56;;;13.41;100.00
55733;BME280;41637;52.364;9.910;2022-07-09T03:18:40;101857.87;;;13.45;100.00
55733;BME280;41637;52.364;9.910;2022-07-09T03:21:07;101851.11;;;13.49;100.00
55733;BME280;41637;52.364;9.910;2022-07-09T03:23:35;101854.61;;;13.52;100.00
55733;BME280;41637;52.364;9.910;2022-07-09T03:26:05;101856.23;;;13.55;100.00
55733;BME280;41637;52.364;9.910;2022-07-09T03:28:34;101858.60;;;13.60;100.00
55733;BME280;41637;52.364;9.910;2022-07-09T03:31:05;101854.20;;;13.63;100.00
55733;BME280;41637;52.364;9.910;2022-07-09T03:33:32;101855.42;;;13.66;100.00
55733;BME280;41637;52.364;9.910;2022-07-09T03:36:00;101851.77;;;13.69;100.00
55733;BME280;41637;52.364;9.910;2022-07-09T03:38:30;101850.14;;;13.71;100.00
55733;BME280;41637;52.364;9.910;2022-07-09T03:40:57;101846.84;;;13.73;100.00
55733;BME280;41637;52.364;9.910;2022-07-09T03:43:25;101845.02;;;13.75;100.00
55733;BME280;41637;52.364;9.910;2022-07-09T03:45:51;101845.23;;;13.78;100.00
55733;BME280;41637;52.364;9.910;2022-07-09T03:48:19;101844.94;;;13.81;100.00
55733;BME280;41637;52.364;9.910;2022-07-09T03:50:47;101842.31;;;13.83;100.00
55733;BME280;41637;52.364;9.910;2022-07-09T03:53:14;101841.22;;;13.87;100.00
55733;BME280;41637;52.364;9.910;2022-07-09T03:55:41;101838.02;;;13.91;100.00
55733;BME280;41637;52.364;9.910;2022-07-09T03:58:08;101841.92;;;13.95;100.00
55733;BME280;41637;52.364;9.910;2022-07-09T04:00:35;101838.84;;;13.99;100.00
55733;BME280;41637;52.364;9.910;2022-07-09T04:03:06;101840.94;;;14.02;100.00
55733;BME280;41637;52.364;9.910;2022-07-09T04:05:33;101842.06;;;14.07;100.00
55733;BME280;41637;52.364;9.910;2022-07-09T04:08:00;101837.09;;;14.12;100.00
55733;BME280;41637;52.364;9.910;2022-07-09T04:10:28;101837.14;;;14.16;100.00
55733;BME280;41637;52.364;9.910;2022-07-09T04:12:55;101840.97;;;14.20;100.00
55733;BME280;41637;52.364;9.910;2022-07-09T04:15:22;101836.79;;;14.24;100.00
55733;BME280;41637;52.364;9.910;2022-07-09T04:17:49;101839.95;;;14.27;100.00
55733;BME280;41637;52.364;9.910;2022-07-09T04:20:19;101840.58;;;14.30;100.00
55733;BME280;41637;52.364;9.910;2022-07-09T04:22:46;101840.06;;;14.33;100.00
55733;BME280;41637;52.364;9.910;2022-07-09T04:25:13;101840.89;;;14.37;100.00
55733;BME280;41637;52.364;9.910;2022-07-09T04:27:40;101839.78;;;14.39;100.00
55733;BME280;41637;52.364;9.910;2022-07-09T04:30:08;101836.67;;;14.39;100.00
55733;BME280;41637;52.364;9.910;2022-07-09T04:32:36;101837.48;;;14.42;100.00
55733;BME280;41637;52.364;9.910;2022-07-09T04:35:04;101828.41;;;14.43;100.00
55733;BME280;41637;52.364;9.910;2022-07-09T04:37:32;101830.23;;;14.46;100.00
55733;BME280;41637;52.364;9.910;2022-07-09T04:39:58;101829.36;;;14.49;100.00
55733;BME280;41637;52.364;9.910;2022-07-09T04:42:26;101827.29;;;14.53;100.00
55733;BME280;41637;52.364;9.910;2022-07-09T04:44:53;101830.49;;;14.58;100.00
55733;BME280;41637;52.364;9.910;2022-07-09T04:47:20;101825.81;;;14.62;100.00
55733;BME280;41637;52.364;9.910;2022-07-09T04:49:47;101826.59;;;14.66;100.00
55733;BME280;41637;52.364;9.910;2022-07-09T04:52:15;101824.35;;;14.72;100.00
55733;BME280;41637;52.364;9.910;2022-07-09T04:54:46;101826.34;;;14.76;100.00
55733;BME280;41637;52.364;9.910;2022-07-09T04:57:14;101821.74;;;14.80;100.00
55733;BME280;41637;52.364;9.910;2022-07-09T04:59:41;101813.00;;;14.84;100.00
55733;BME280;41637;52.364;9.910;2022-07-09T05:02:08;101812.39;;;14.87;100.00
55733;BME280;41637;52.364;9.910;2022-07-09T05:04:35;101813.04;;;14.90;100.00
55733;BME280;41637;52.364;9.910;2022-07-09T05:07:03;101811.43;;;14.91;100.00
55733;BME280;41637;52.364;9.910;2022-07-09T05:09:30;101809.14;;;14.94;100.00
55733;BME280;41637;52.364;9.910;2022-07-09T05:11:57;101801.45;;;14.99;100.00
55733;BME280;41637;52.364;9.910;2022-07-09T05:14:25;101800.93;;;15.06;100.00
55733;BME280;41637;52.364;9.910;2022-07-09T05:16:52;101802.02;;;15.16;100.00
55733;BME280;41637;52.364;9.910;2022-07-09T05:19:19;101805.49;;;15.24;100.00
55733;BME280;41637;52.364;9.910;2022-07-09T05:21:47;101805.13;;;15.34;99.92
55733;BME280;41637;52.364;9.910;2022-07-09T05:24:14;101814.41;;;15.42;99.54
55733;BME280;41637;52.364;9.910;2022-07-09T05:26:40;101820.97;;;15.50;99.20
55733;BME280;41637;52.364;9.910;2022-07-09T05:29:07;101819.92;;;15.57;98.69
55733;BME280;41637;52.364;9.910;2022-07-09T05:31:34;101816.95;;;15.63;98.57
55733;BME280;41637;52.364;9.910;2022-07-09T05:34:02;101816.56;;;15.75;98.34
55733;BME280;41637;52.364;9.910;2022-07-09T05:36:29;101815.89;;;15.86;97.93
55733;BME280;41637;52.364;9.910;2022-07-09T05:38:56;101822.66;;;15.96;97.08
55733;BME280;41637;52.364;9.910;2022-07-09T05:41:23;101833.41;;;16.01;96.39
55733;BME280;41637;52.364;9.910;2022-07-09T05:43:51;101830.97;;;16.04;95.94
55733;BME280;41637;52.364;9.910;2022-07-09T05:46:17;101829.90;;;16.06;95.77
55733;BME280;41637;52.364;9.910;2022-07-09T05:48:45;101825.05;;;16.10;95.68
55733;BME280;41637;52.364;9.910;2022-07-09T05:51:12;101818.14;;;16.17;95.50
55733;BME280;41637;52.364;9.910;2022-07-09T05:53:38;101819.41;;;16.24;94.91
55733;BME280;41637;52.364;9.910;2022-07-09T05:56:05;101818.28;;;16.32;94.74
55733;BME280;41637;52.364;9.910;2022-07-09T05:58:32;101819.38;;;16.38;94.25
55733;BME280;41637;52.364;9.910;2022-07-09T06:00:59;101819.09;;;16.40;93.96
55733;BME280;41637;52.364;9.910;2022-07-09T06:03:26;101821.94;;;16.43;93.71
55733;BME280;41637;52.364;9.910;2022-07-09T06:05:53;101824.64;;;16.46;93.41
55733;BME280;41637;52.364;9.910;2022-07-09T06:08:20;101821.81;;;16.44;92.48
55733;BME280;41637;52.364;9.910;2022-07-09T06:10:47;101818.77;;;16.46;92.05
55733;BME280;41637;52.364;9.910;2022-07-09T06:13:15;101817.67;;;16.53;92.04
55733;BME280;41637;52.364;9.910;2022-07-09T06:15:42;101812.11;;;16.62;91.06
55733;BME280;41637;52.364;9.910;2022-07-09T06:18:09;101816.66;;;16.79;91.51
55733;BME280;41637;52.364;9.910;2022-07-09T06:20:36;101817.02;;;17.00;90.72
55733;BME280;41637;52.364;9.910;2022-07-09T06:23:05;101813.98;;;17.13;89.63
55733;BME280;41637;52.364;9.910;2022-07-09T06:25:33;101816.17;;;17.21;88.29
55733;BME280;41637;52.364;9.910;2022-07-09T06:28:00;101816.48;;;17.24;87.57
55733;BME280;41637;52.364;9.910;2022-07-09T06:30:26;101817.98;;;17.35;87.68
55733;BME280;41637;52.364;9.910;2022-07-09T06:32:53;101815.60;;;17.41;87.10
55733;BME280;41637;52.364;9.910;2022-07-09T06:35:20;101811.63;;;17.48;86.90
55733;BME280;41637;52.364;9.910;2022-07-09T06:37:46;101813.04;;;17.49;86.16
55733;BME280;41637;52.364;9.910;2022-07-09T06:40:13;101808.20;;;17.42;85.70
55733;BME280;41637;52.364;9.910;2022-07-09T06:42:40;101807.25;;;17.43;86.30
55733;BME280;41637;52.364;9.910;2022-07-09T06:45:08;101810.06;;;17.48;86.18
55733;BME280;41637;52.364;9.910;2022-07-09T06:47:37;101808.41;;;17.54;85.58
55733;BME280;41637;52.364;9.910;2022-07-09T06:50:09;101805.96;;;17.63;84.68
55733;BME280;41637;52.364;9.910;2022-07-09T06:52:36;101800.95;;;17.67;84.13
55733;BME280;41637;52.364;9.910;2022-07-09T06:55:03;101804.31;;;17.70;84.12
55733;BME280;41637;52.364;9.910;2022-07-09T06:57:30;101802.41;;;17.72;83.78
55733;BME280;41637;52.364;9.910;2022-07-09T06:59:57;101796.42;;;17.67;83.90
55733;BME280;41637;52.364;9.910;2022-07-09T07:02:24;101797.86;;;17.67;84.20
55733;BME280;41637;52.364;9.910;2022-07-09T07:04:51;101799.38;;;17.70;84.27
55733;BME280;41637;52.364;9.910;2022-07-09T07:07:18;101799.85;;;17.74;83.64
55733;BME280;41637;52.364;9.910;2022-07-09T07:09:44;101797.85;;;17.77;82.78
55733;BME280;41637;52.364;9.910;2022-07-09T07:12:12;101793.10;;;17.90;82.83
55733;BME280;41637;52.364;9.910;2022-07-09T07:14:38;101794.08;;;18.08;82.72
55733;BME280;41637;52.364;9.910;2022-07-09T07:17:05;101791.86;;;18.27;81.29
55733;BME280;41637;52.364;9.910;2022-07-09T07:19:32;101790.65;;;18.33;79.71
55733;BME280;41637;52.364;9.910;2022-07-09T07:21:59;101792.45;;;18.38;79.22
55733;BME280;41637;52.364;9.910;2022-07-09T07:24:26;101793.52;;;18.39;79.07
55733;BME280;41637;52.364;9.910;2022-07-09T07:26:53;101790.84;;;18.36;78.99
55733;BME280;41637;52.364;9.910;2022-07-09T07:29:23;101794.36;;;18.28;79.06
55733;BME280;41637;52.364;9.910;2022-07-09T07:31:50;101785.19;;;18.24;79.09
55733;BME280;41637;52.364;9.910;2022-07-09T07:34:17;101784.34;;;18.25;79.03
55733;BME280;41637;52.364;9.910;2022-07-09T07:36:48;101784.16;;;18.31;79.21
55733;BME280;41637;52.364;9.910;2022-07-09T07:39:17;101785.67;;;18.44;78.96
55733;BME280;41637;52.364;9.910;2022-07-09T07:41:52;101786.19;;;18.65;78.53
55733;BME280;41637;52.364;9.910;2022-07-09T07:44:19;101788.43;;;18.78;76.64
55733;BME280;41637;52.364;9.910;2022-07-09T07:46:47;101782.45;;;18.97;76.69
55733;BME280;41637;52.364;9.910;2022-07-09T07:49:14;101782.56;;;19.14;75.06
55733;BME280;41637;52.364;9.910;2022-07-09T07:51:40;101782.37;;;19.25;75.00
55733;BME280;41637;52.364;9.910;2022-07-09T07:54:09;101786.34;;;19.30;74.55
55733;BME280;41637;52.364;9.910;2022-07-09T07:56:36;101775.96;;;19.33;73.95
55733;BME280;41637;52.364;9.910;2022-07-09T07:59:05;101776.75;;;19.32;74.23
55733;BME280;41637;52.364;9.910;2022-07-09T08:01:35;101775.13;;;19.31;73.97
55733;BME280;41637;52.364;9.910;2022-07-09T08:04:04;101770.57;;;19.25;73.68
55733;BME280;41637;52.364;9.910;2022-07-09T08:06:30;101770.98;;;19.18;73.99
55733;BME280;41637;52.364;9.910;2022-07-09T08:08:58;101768.20;;;19.16;74.36
55733;BME280;41637;52.364;9.910;2022-07-09T08:11:26;101770.30;;;19.05;74.79
55733;BME280;41637;52.364;9.910;2022-07-09T08:13:57;101760.79;;;19.00;75.13
55733;BME280;41637;52.364;9.910;2022-07-09T08:16:26;101760.98;;;18.97;75.42
55733;BME280;41637;52.364;9.910;2022-07-09T08:18:55;101761.35;;;18.96;75.78
55733;BME280;41637;52.364;9.910;2022-07-09T08:21:23;101758.63;;;18.94;76.09
55733;BME280;41637;52.364;9.910;2022-07-09T08:23:52;101760.80;;;18.92;76.26
55733;BME280;41637;52.364;9.910;2022-07-09T08:26:24;101760.31;;;18.90;76.32
55733;BME280;41637;52.364;9.910;2022-07-09T08:28:55;101763.20;;;18.87;76.08
55733;BME280;41637;52.364;9.910;2022-07-09T08:31:23;101760.38;;;18.81;76.03
55733;BME280;41637;52.364;9.910;2022-07-09T08:33:59;101765.52;;;18.78;75.88
55733;BME280;41637;52.364;9.910;2022-07-09T08:36:27;101758.70;;;18.69;76.14
55733;BME280;41637;52.364;9.910;2022-07-09T08:38:57;101756.22;;;18.67;76.37
55733;BME280;41637;52.364;9.910;2022-07-09T08:41:23;101756.84;;;18.70;76.04
55733;BME280;41637;52.364;9.910;2022-07-09T08:43:52;101758.43;;;18.74;75.90
55733;BME280;41637;52.364;9.910;2022-07-09T08:46:20;101756.86;;;18.82;75.84
55733;BME280;41637;52.364;9.910;2022-07-09T08:48:47;101755.18;;;18.88;75.59
55733;BME280;41637;52.364;9.910;2022-07-09T08:51:14;101758.34;;;18.95;75.04
55733;BME280;41637;52.364;9.910;2022-07-09T08:53:42;101757.73;;;19.03;74.86
55733;BME280;41637;52.364;9.910;2022-07-09T08:56:09;101753.27;;;19.14;75.40
55733;BME280;41637;52.364;9.910;2022-07-09T08:58:40;101749.20;;;19.26;74.90
55733;BME280;41637;52.364;9.910;2022-07-09T09:01:06;101746.16;;;19.26;74.09
55733;BME280;41637;52.364;9.910;2022-07-09T09:03:35;101751.16;;;19.18;73.47
55733;BME280;41637;52.364;9.910;2022-07-09T09:06:05;101753.02;;;19.07;73.42
55733;BME280;41637;52.364;9.910;2022-07-09T09:08:37;101752.89;;;19.03;73.69
55733;BME280;41637;52.364;9.910;2022-07-09T09:11:05;101744.67;;;19.08;73.93
55733;BME280;41637;52.364;9.910;2022-07-09T09:13:42;101745.53;;;19.07;73.46
55733;BME280;41637;52.364;9.910;2022-07-09T09:16:09;101744.11;;;19.00;73.72
55733;BME280;41637;52.364;9.910;2022-07-09T09:18:39;101737.44;;;18.98;73.41
55733;BME280;41637;52.364;9.910;2022-07-09T09:21:07;101733.56;;;18.97;73.22
55733;BME280;41637;52.364;9.910;2022-07-09T09:23:41;101730.84;;;19.04;73.62
55733;BME280;41637;52.364;9.910;2022-07-09T09:26:08;101729.10;;;19.09;73.43
55733;BME280;41637;52.364;9.910;2022-07-09T09:28:44;101725.88;;;19.18;73.34
55733;BME280;41637;52.364;9.910;2022-07-09T09:31:17;101722.98;;;19.30;73.08
55733;BME280;41637;52.364;9.910;2022-07-09T09:33:44;101721.86;;;19.39;71.90
55733;BME280;41637;52.364;9.910;2022-07-09T09:36:11;101720.34;;;19.54;71.77
55733;BME280;41637;52.364;9.910;2022-07-09T09:38:38;101713.86;;;19.77;71.67
55733;BME280;41637;52.364;9.910;2022-07-09T09:41:04;101716.48;;;20.03;70.17
55733;BME280;41637;52.364;9.910;2022-07-09T09:43:32;101708.65;;;20.23;69.21
55733;BME280;41637;52.364;9.910;2022-07-09T09:46:00;101715.52;;;20.49;67.98
55733;BME280;41637;52.364;9.910;2022-07-09T09:48:31;101722.69;;;20.71;65.91
55733;BME280;41637;52.364;9.910;2022-07-09T09:50:58;101722.73;;;20.83;64.08
55733;BME280;41637;52.364;9.910;2022-07-09T09:53:26;101724.13;;;20.95;64.01
55733;BME280;41637;52.364;9.910;2022-07-09T09:55:53;101719.94;;;21.17;64.17
55733;BME280;41637;52.364;9.910;2022-07-09T09:58:22;101714.02;;;21.48;63.51
55733;BME280;41637;52.364;9.910;2022-07-09T10:00:49;101712.54;;;21.61;62.96
55733;BME280;41637;52.364;9.910;2022-07-09T10:03:16;101712.21;;;21.68;62.57
55733;BME280;41637;52.364;9.910;2022-07-09T10:05:43;101706.02;;;21.65;62.10
55733;BME280;41637;52.364;9.910;2022-07-09T10:08:10;101704.38;;;21.71;61.83
55733;BME280;41637;52.364;9.910;2022-07-09T10:10:38;101706.30;;;21.67;60.46
55733;BME280;41637;52.364;9.910;2022-07-09T10:13:05;101711.08;;;21.66;60.11
55733;BME280;41637;52.364;9.910;2022-07-09T10:15:32;101717.66;;;21.68;58.84
55733;BME280;41637;52.364;9.910;2022-07-09T10:18:09;101713.95;;;21.66;58.33
55733;BME280;41637;52.364;9.910;2022-07-09T10:20:35;101717.70;;;21.67;58.14
55733;BME280;41637;52.364;9.910;2022-07-09T10:23:03;101711.33;;;21.78;58.57
55733;BME280;41637;52.364;9.910;2022-07-09T10:25:31;101708.24;;;21.92;58.81
55733;BME280;41637;52.364;9.910;2022-07-09T10:27:57;101701.99;;;22.07;58.22
55733;BME280;41637;52.364;9.910;2022-07-09T10:30:28;101700.63;;;22.07;57.30
55733;BME280;41637;52.364;9.910;2022-07-09T10:33:40;101699.91;;;22.15;57.50
55733;BME280;41637;52.364;9.910;2022-07-09T10:35:46;101707.69;;;22.32;54.91
55733;BME280;41637;52.364;9.910;2022-07-09T10:38:13;101701.40;;;22.45;54.24
55733;BME280;41637;52.364;9.910;2022-07-09T10:40:47;101702.25;;;22.67;53.81
55733;BME280;41637;52.364;9.910;2022-07-09T10:43:14;101694.52;;;22.76;52.54
55733;BME280;41637;52.364;9.910;2022-07-09T10:45:41;101687.66;;;22.76;52.45
55733;BME280;41637;52.364;9.910;2022-07-09T10:48:09;101685.84;;;22.70;52.65
55733;BME280;41637;52.364;9.910;2022-07-09T10:50:37;101680.45;;;22.72;52.94
55733;BME280;41637;52.364;9.910;2022-07-09T10:53:05;101681.52;;;22.69;52.23
55733;BME280;41637;52.364;9.910;2022-07-09T10:55:32;101688.61;;;22.58;52.05
55733;BME280;41637;52.364;9.910;2022-07-09T10:57:59;101689.52;;;22.39;51.60
55733;BME280;41637;52.364;9.910;2022-07-09T11:00:26;101681.02;;;22.39;52.30
55733;BME280;41637;52.364;9.910;2022-07-09T11:02:57;101681.97;;;22.42;52.31
55733;BME280;41637;52.364;9.910;2022-07-09T11:05:24;101685.17;;;22.43;52.03
55733;BME280;41637;52.364;9.910;2022-07-09T11:08:04;101668.77;;;22.61;52.67
55733;BME280;41637;52.364;9.910;2022-07-09T11:10:35;101665.43;;;22.77;50.79
55733;BME280;41637;52.364;9.910;2022-07-09T11:13:02;101665.18;;;22.97;50.73
55733;BME280;41637;52.364;9.910;2022-07-09T11:15:30;101663.36;;;23.06;50.76
55733;BME280;41637;52.364;9.910;2022-07-09T11:18:18;101657.20;;;23.24;51.21
55733;BME280;41637;52.364;9.910;2022-07-09T11:20:45;101661.39;;;23.46;49.25
55733;BME280;41637;52.364;9.910;2022-07-09T11:23:15;101652.45;;;23.49;48.38
55733;BME280;41637;52.364;9.910;2022-07-09T11:25:43;101654.98;;;23.55;48.00
55733;BME280;41637;52.364;9.910;2022-07-09T11:28:23;101644.56;;;23.65;48.21
55733;BME280;41637;52.364;9.910;2022-07-09T11:33:26;101633.38;;;23.97;46.72
55733;BME280;41637;52.364;9.910;2022-07-09T11:35:53;101646.95;;;24.04;45.24
55733;BME280;41637;52.364;9.910;2022-07-09T11:38:20;101637.93;;;23.82;45.92
55733;BME280;41637;52.364;9.910;2022-07-09T11:40:47;101627.35;;;23.71;46.25
55733;BME280;41637;52.364;9.910;2022-07-09T11:43:14;101629.73;;;23.58;46.82
55733;BME280;41637;52.364;9.910;2022-07-09T11:45:51;101636.00;;;23.47;47.23
55733;BME280;41637;52.364;9.910;2022-07-09T11:48:18;101631.73;;;23.20;47.28
55733;BME280;41637;52.364;9.910;2022-07-09T11:50:45;101634.38;;;23.03;47.07
55733;BME280;41637;52.364;9.910;2022-07-09T11:53:24;101628.57;;;22.96;47.27
55733;BME280;41637;52.364;9.910;2022-07-09T11:55:58;101621.20;;;23.05;47.41
55733;BME280;41637;52.364;9.910;2022-07-09T11:58:26;101616.27;;;23.06;48.12
55733;BME280;41637;52.364;9.910;2022-07-09T12:00:53;101604.56;;;23.22;48.54
55733;BME280;41637;52.364;9.910;2022-07-09T12:03:23;101615.20;;;23.39;48.16
55733;BME280;41637;52.364;9.910;2022-07-09T12:05:50;101614.94;;;23.44;46.03
55733;BME280;41637;52.364;9.910;2022-07-09T12:08:25;101603.05;;;23.49;46.08
55733;BME280;41637;52.364;9.910;2022-07-09T12:10:52;101593.66;;;23.60;47.27
55733;BME280;41637;52.364;9.910;2022-07-09T12:13:19;101592.71;;;23.51;47.72
55733;BME280;41637;52.364;9.910;2022-07-09T12:15:46;101589.30;;;23.73;47.09
55733;BME280;41637;52.364;9.910;2022-07-09T12:18:13;101588.72;;;24.10;45.61
55733;BME280;41637;52.364;9.910;2022-07-09T12:20:40;101580.25;;;24.28;43.62
55733;BME280;41637;52.364;9.910;2022-07-09T12:23:07;101580.77;;;24.27;43.25
55733;BME280;41637;52.364;9.910;2022-07-09T12:25:34;101591.50;;;24.32;43.61
55733;BME280;41637;52.364;9.910;2022-07-09T12:28:01;101584.48;;;24.38;43.17
55733;BME280;41637;52.364;9.910;2022-07-09T12:30:28;101585.05;;;24.61;42.69
55733;BME280;41637;52.364;9.910;2022-07-09T12:32:56;101587.41;;;24.88;41.66
55733;BME280;41637;52.364;9.910;2022-07-09T12:35:26;101576.97;;;25.03;40.97
55733;BME280;41637;52.364;9.910;2022-07-09T12:37:53;101579.17;;;25.24;40.27
55733;BME280;41637;52.364;9.910;2022-07-09T12:40:22;101567.31;;;25.70;38.30
55733;BME280;41637;52.364;9.910;2022-07-09T12:42:49;101576.76;;;26.04;37.87
55733;BME280;41637;52.364;9.910;2022-07-09T12:45:16;101568.27;;;25.90;38.25
55733;BME280;41637;52.364;9.910;2022-07-09T12:47:43;101557.26;;;25.42;39.57
55733;BME280;41637;52.364;9.910;2022-07-09T12:50:10;101576.90;;;24.93;40.13
55733;BME280;41637;52.364;9.910;2022-07-09T12:52:38;101572.34;;;24.26;41.48
55733;BME280;41637;52.364;9.910;2022-07-09T12:55:06;101576.27;;;23.68;43.23
55733;BME280;41637;52.364;9.910;2022-07-09T12:57:33;101594.92;;;23.13;45.74